createdAt,value
2023-04-20T00:02:05.344Z,15.88
2023-04-20T00:05:09.501Z,14.77
2023-04-20T00:08:12.199Z,17.38
2023-04-20T00:11:15.032Z,14.20
2023-04-20T00:14:17.816Z,13.13
2023-04-20T00:17:20.686Z,17.27
2023-04-20T00:20:23.813Z,17.55
2023-04-20T00:23:26.742Z,14.27
2023-04-20T00:26:29.566Z,14.73
2023-04-20T00:29:34.371Z,15.32
2023-04-20T00:32:37.046Z,15.98
2023-04-20T00:35:39.806Z,14.02
2023-04-20T00:38:42.617Z,12.70
2023-04-20T00:41:45.346Z,16.23
2023-04-20T00:44:48.122Z,15.60
2023-04-20T00:47:51.928Z,15.25
2023-04-20T00:50:54.908Z,20.10
2023-04-20T00:53:57.924Z,13.88
2023-04-20T00:57:02.797Z,16.75
2023-04-20T01:00:07.756Z,14.20
2023-04-20T01:03:11.323Z,14.07
2023-04-20T01:06:15.056Z,18.48
2023-04-20T01:09:18.000Z,14.13
2023-04-20T01:12:20.930Z,14.38
2023-04-20T01:15:23.632Z,15.15
2023-04-20T01:18:27.300Z,13.93
2023-04-20T01:21:30.003Z,20.20
2023-04-20T01:24:35.302Z,14.77
2023-04-20T01:27:38.078Z,15.85
2023-04-20T01:30:40.832Z,14.52
2023-04-20T01:33:43.654Z,17.42
2023-04-20T01:36:46.299Z,14.68
2023-04-20T01:39:49.117Z,16.33
2023-04-20T01:42:52.035Z,14.25
2023-04-20T01:45:54.723Z,15.35
2023-04-20T01:48:57.344Z,17.15
2023-04-20T01:52:00.003Z,15.73
2023-04-20T01:55:02.616Z,15.63
2023-04-20T01:58:06.011Z,16.90
2023-04-20T02:01:09.485Z,16.92
2023-04-20T02:04:12.514Z,17.50
2023-04-20T02:07:16.391Z,18.80
2023-04-20T02:10:19.387Z,14.05
2023-04-20T02:13:22.381Z,15.68
2023-04-20T02:16:25.212Z,15.23
2023-04-20T02:19:27.983Z,15.38
2023-04-20T02:22:35.131Z,14.60
2023-04-20T02:28:40.526Z,18.02
2023-04-20T02:31:43.346Z,15.75
2023-04-20T02:34:46.498Z,16.83
2023-04-20T02:37:49.110Z,16.52
2023-04-20T02:40:51.720Z,16.80
2023-04-20T02:43:55.207Z,15.75
2023-04-20T02:46:58.012Z,16.02
2023-04-20T02:50:01.724Z,13.82
2023-04-20T02:53:06.584Z,17.58
2023-04-20T02:56:12.172Z,14.38
2023-04-20T02:59:19.686Z,15.63
2023-04-20T03:02:34.878Z,16.88
2023-04-20T03:05:38.251Z,17.50
2023-04-20T03:08:41.395Z,20.40
2023-04-20T03:12:07.392Z,17.17
2023-04-20T03:15:39.471Z,14.93
2023-04-20T03:18:57.816Z,16.02
2023-04-20T03:22:00.626Z,15.75
2023-04-20T03:25:03.364Z,18.42
2023-04-20T03:28:28.963Z,17.55
2023-04-20T03:31:31.798Z,15.43
2023-04-20T03:34:35.044Z,17.92
2023-04-20T03:37:38.427Z,17.83
2023-04-20T03:40:42.290Z,19.20
2023-04-20T03:43:45.214Z,18.73
2023-04-20T03:46:51.420Z,20.67
2023-04-20T03:49:54.336Z,19.57
2023-04-20T03:52:57.109Z,15.73
2023-04-20T03:55:59.957Z,17.92
2023-04-20T03:59:03.145Z,16.13
2023-04-20T04:02:06.337Z,18.58
2023-04-20T04:05:09.615Z,18.27
2023-04-20T04:08:12.680Z,18.55
2023-04-20T04:11:15.708Z,17.05
2023-04-20T04:14:18.546Z,18.77
2023-04-20T04:17:22.272Z,16.90
2023-04-20T04:20:25.262Z,18.40
2023-04-20T04:23:28.814Z,18.98
2023-04-20T04:26:44.725Z,16.17
2023-04-20T04:29:50.506Z,17.70
2023-04-20T04:32:56.329Z,16.60
2023-04-20T04:35:59.266Z,22.65
2023-04-20T04:39:02.507Z,17.17
2023-04-20T04:42:06.266Z,21.83
2023-04-20T04:45:16.862Z,19.33
2023-04-20T04:48:20.147Z,18.90
2023-04-20T04:51:23.004Z,17.85
2023-04-20T04:54:25.874Z,16.98
2023-04-20T04:57:28.713Z,18.02
2023-04-20T05:00:31.796Z,17.00
2023-04-20T05:03:34.789Z,18.70
2023-04-20T05:06:37.599Z,14.55
2023-04-20T05:09:40.527Z,17.77
2023-04-20T05:12:43.370Z,18.30
2023-04-20T05:15:46.142Z,16.90
2023-04-20T05:18:48.748Z,15.48
2023-04-20T05:21:51.602Z,13.43
2023-04-20T05:24:54.373Z,13.15
2023-04-20T05:27:57.076Z,16.63
2023-04-20T05:30:59.715Z,15.27
2023-04-20T05:34:03.252Z,16.52
2023-04-20T05:37:06.668Z,20.83
2023-04-20T05:40:09.919Z,15.82
2023-04-20T05:43:12.646Z,17.50
2023-04-20T05:46:15.428Z,17.95
2023-04-20T05:49:18.448Z,15.75
2023-04-20T05:52:21.385Z,16.48
2023-04-20T05:55:24.134Z,15.88
2023-04-20T05:58:27.559Z,18.17
2023-04-20T06:01:30.373Z,16.42
2023-04-20T06:04:33.386Z,14.73
2023-04-20T06:07:37.009Z,14.57
2023-04-20T06:10:39.779Z,19.38
2023-04-20T06:13:42.406Z,16.48
2023-04-20T06:16:45.306Z,14.10
2023-04-20T06:19:48.222Z,14.45
2023-04-20T06:22:51.203Z,16.25
2023-04-20T06:25:53.940Z,16.45
2023-04-20T06:28:56.773Z,15.15
2023-04-20T06:31:59.581Z,16.42
2023-04-20T06:35:02.309Z,15.02
2023-04-20T06:38:05.090Z,15.73
2023-04-20T06:41:07.820Z,14.00
2023-04-20T06:44:10.776Z,16.67
2023-04-20T06:47:13.537Z,16.13
2023-04-20T06:50:16.518Z,21.90
2023-04-20T06:53:19.444Z,15.10
2023-04-20T06:56:22.362Z,14.60
2023-04-20T06:59:25.221Z,15.68
2023-04-20T07:02:28.360Z,12.75
2023-04-20T07:05:31.191Z,16.25
2023-04-20T07:08:34.348Z,15.30
2023-04-20T07:11:37.056Z,12.00
2023-04-20T07:14:39.796Z,18.30
2023-04-20T07:17:42.608Z,15.32
2023-04-20T07:20:45.348Z,12.07
2023-04-20T07:23:48.604Z,16.02
2023-04-20T07:26:51.912Z,12.10
2023-04-20T07:29:54.827Z,14.27
2023-04-20T07:32:57.814Z,12.55
2023-04-20T07:36:00.542Z,15.40
2023-04-20T07:39:03.488Z,13.43
2023-04-20T07:42:06.134Z,17.30
2023-04-20T07:45:10.623Z,12.60
2023-04-20T07:48:13.587Z,11.48
2023-04-20T07:51:16.319Z,14.85
2023-04-20T07:54:19.305Z,10.43
2023-04-20T07:57:22.409Z,12.23
2023-04-20T08:00:25.446Z,11.88
2023-04-20T08:03:29.376Z,16.20
2023-04-20T08:06:32.284Z,10.07
2023-04-20T08:09:34.980Z,11.23
2023-04-20T08:12:37.762Z,10.07
2023-04-20T08:15:40.476Z,13.50
2023-04-20T08:18:43.322Z,12.55
2023-04-20T08:21:46.083Z,11.00
2023-04-20T08:24:48.784Z,15.40
2023-04-20T08:27:51.447Z,9.93
2023-04-20T08:30:54.113Z,12.45
2023-04-20T08:33:56.928Z,12.25
2023-04-20T08:36:59.694Z,11.95
2023-04-20T08:40:02.393Z,9.40
2023-04-20T08:43:05.005Z,8.77
2023-04-20T08:46:07.924Z,10.07
2023-04-20T08:49:13.185Z,8.60
2023-04-20T08:52:16.080Z,8.95
2023-04-20T08:55:19.504Z,10.98
2023-04-20T08:58:22.660Z,9.25
2023-04-20T09:01:35.263Z,6.13
2023-04-20T09:04:40.209Z,6.22
2023-04-20T09:07:53.548Z,5.80
2023-04-20T09:10:56.464Z,5.30
2023-04-20T09:14:02.341Z,7.07
2023-04-20T09:17:05.532Z,9.48
2023-04-20T09:20:08.918Z,6.88
2023-04-20T09:23:16.648Z,8.00
2023-04-20T09:26:19.702Z,6.88
2023-04-20T09:29:24.430Z,7.68
2023-04-20T09:32:31.186Z,8.52
2023-04-20T09:35:35.131Z,7.70
2023-04-20T09:38:38.162Z,8.43
2023-04-20T09:41:41.818Z,7.07
2023-04-20T09:44:45.008Z,6.65
2023-04-20T09:47:50.110Z,8.88
2023-04-20T09:50:53.124Z,7.47
2023-04-20T09:54:00.378Z,8.15
2023-04-20T09:57:03.791Z,6.70
2023-04-20T10:00:08.283Z,6.10
2023-04-20T10:03:13.056Z,6.00
2023-04-20T10:06:35.338Z,9.32
2023-04-20T10:09:38.154Z,6.38
2023-04-20T10:12:48.285Z,5.85
2023-04-20T10:15:51.156Z,5.47
2023-04-20T10:19:01.252Z,6.20
2023-04-20T10:22:04.550Z,4.97
2023-04-20T10:25:19.888Z,4.63
2023-04-20T10:28:22.718Z,5.82
2023-04-20T10:31:36.463Z,5.47
2023-04-20T10:34:39.778Z,5.65
2023-04-20T10:37:51.135Z,4.05
2023-04-20T10:40:53.968Z,5.72
2023-04-20T10:44:07.931Z,5.47
2023-04-20T10:47:11.623Z,6.65
2023-04-20T10:50:15.978Z,8.05
2023-04-20T10:53:23.063Z,4.28
2023-04-20T10:56:27.114Z,4.60
2023-04-20T10:59:29.834Z,5.68
2023-04-20T11:02:33.024Z,4.47
2023-04-20T11:05:36.136Z,4.85
2023-04-20T11:08:42.261Z,4.85
2023-04-20T11:11:45.073Z,7.22
2023-04-20T11:14:53.666Z,6.63
2023-04-20T11:17:57.004Z,19.95
2023-04-20T11:20:59.976Z,4.68
2023-04-20T11:24:03.394Z,3.38
2023-04-20T11:27:06.114Z,4.93
2023-04-20T11:30:10.187Z,4.18
2023-04-20T11:33:14.321Z,3.38
2023-04-20T11:36:24.624Z,5.32
2023-04-20T11:39:28.764Z,5.25
2023-04-20T11:42:31.569Z,4.65
2023-04-20T11:45:36.171Z,3.35
2023-04-20T11:48:39.725Z,3.40
2023-04-20T11:51:43.648Z,2.97
2023-04-20T11:54:46.821Z,5.07
2023-04-20T11:57:50.490Z,3.45
2023-04-20T12:00:53.263Z,2.63
2023-04-20T12:03:56.457Z,4.63
2023-04-20T12:06:59.843Z,3.55
2023-04-20T12:10:03.242Z,3.58
2023-04-20T12:13:06.697Z,3.50
2023-04-20T12:16:09.660Z,4.88
2023-04-20T12:19:12.808Z,3.38
2023-04-20T12:22:15.787Z,4.55
2023-04-20T12:25:18.662Z,6.25
2023-04-20T12:28:21.635Z,6.38
2023-04-20T12:31:26.660Z,3.30
2023-04-20T12:34:30.751Z,4.40
2023-04-20T12:37:33.618Z,5.15
2023-04-20T12:40:36.437Z,5.75
2023-04-20T12:43:39.238Z,3.33
2023-04-20T12:46:42.744Z,3.30
2023-04-20T12:49:45.583Z,3.60
2023-04-20T12:52:48.441Z,4.45
2023-04-20T12:55:57.877Z,9.07
2023-04-20T12:59:04.057Z,3.78
2023-04-20T13:02:07.044Z,3.58
2023-04-20T13:05:10.586Z,4.95
2023-04-20T13:08:13.240Z,5.32
2023-04-20T13:11:17.738Z,2.67
2023-04-20T13:14:21.086Z,3.20
2023-04-20T13:17:24.462Z,2.85
2023-04-20T13:20:29.753Z,4.40
2023-04-20T13:23:32.688Z,3.33
2023-04-20T13:26:36.859Z,4.93
2023-04-20T13:29:40.546Z,3.63
2023-04-20T13:32:43.305Z,3.13
2023-04-20T13:35:46.654Z,3.97
2023-04-20T13:38:49.878Z,2.90
2023-04-20T13:41:52.726Z,3.17
2023-04-20T13:44:55.757Z,2.83
2023-04-20T13:47:58.685Z,2.28
2023-04-20T13:51:02.034Z,3.13
2023-04-20T13:54:05.033Z,2.70
2023-04-20T13:57:07.971Z,3.67
2023-04-20T14:00:11.154Z,4.05
2023-04-20T14:03:15.854Z,4.38
2023-04-20T14:06:19.148Z,4.95
2023-04-20T14:09:22.685Z,2.83
2023-04-20T14:12:27.242Z,2.85
2023-04-20T14:15:30.541Z,2.83
2023-04-20T14:18:33.249Z,2.83
2023-04-20T14:21:36.396Z,2.53
2023-04-20T14:24:39.283Z,6.13
2023-04-20T14:27:42.045Z,7.40
2023-04-20T14:30:46.379Z,3.45
2023-04-20T14:33:49.302Z,4.55
2023-04-20T14:36:52.213Z,2.60
2023-04-20T14:39:54.955Z,4.97
2023-04-20T14:42:58.353Z,2.22
2023-04-20T14:46:01.318Z,11.98
2023-04-20T14:49:04.345Z,4.13
2023-04-20T14:52:07.465Z,3.58
2023-04-20T14:55:10.496Z,12.35
2023-04-20T14:58:13.377Z,5.53
2023-04-20T15:01:16.431Z,6.88
2023-04-20T15:04:19.678Z,7.25
2023-04-20T15:07:22.724Z,2.92
2023-04-20T15:10:25.796Z,4.00
2023-04-20T15:13:28.484Z,9.18
2023-04-20T15:16:33.007Z,5.03
2023-04-20T15:19:36.433Z,5.05
2023-04-20T15:22:39.535Z,3.47
2023-04-20T15:25:42.569Z,3.38
2023-04-20T15:28:45.628Z,5.22
2023-04-20T15:31:48.536Z,2.97
2023-04-20T15:34:51.850Z,4.05
2023-04-20T15:37:57.452Z,3.40
2023-04-20T15:41:03.520Z,7.22
2023-04-20T15:44:14.385Z,3.63
2023-04-20T15:47:25.789Z,5.90
2023-04-20T15:50:38.849Z,4.53
2023-04-20T15:53:51.873Z,4.63
2023-04-20T15:56:57.769Z,3.63
2023-04-20T16:00:01.605Z,4.30
2023-04-20T16:03:07.889Z,4.40
2023-04-20T16:06:13.525Z,6.00
2023-04-20T16:09:20.795Z,4.55
2023-04-20T16:12:39.834Z,3.50
2023-04-20T16:15:52.800Z,4.68
2023-04-20T16:19:12.549Z,6.20
2023-04-20T16:22:50.978Z,16.60
2023-04-20T16:26:00.710Z,9.90
2023-04-20T16:29:14.470Z,12.80
2023-04-20T16:32:17.625Z,15.80
2023-04-20T16:35:27.178Z,7.00
2023-04-20T16:38:39.649Z,5.88
2023-04-20T16:41:53.560Z,4.07
2023-04-20T16:45:05.079Z,5.55
2023-04-20T16:48:11.089Z,5.03
2023-04-20T16:51:27.600Z,5.18
2023-04-20T16:54:34.601Z,6.18
2023-04-20T16:57:48.947Z,4.38
2023-04-20T17:00:59.841Z,3.63
2023-04-20T17:04:09.764Z,8.07
2023-04-20T17:07:16.381Z,7.82
2023-04-20T17:10:21.509Z,6.85
2023-04-20T17:13:25.363Z,4.40
2023-04-20T17:16:28.449Z,4.03
2023-04-20T17:19:31.913Z,2.83
2023-04-20T17:22:35.988Z,6.78
2023-04-20T17:25:39.119Z,3.83
2023-04-20T17:28:42.085Z,2.80
2023-04-20T17:31:46.012Z,5.32
2023-04-20T17:34:51.772Z,3.60
2023-04-20T17:37:54.983Z,6.80
2023-04-20T17:40:58.002Z,3.45
2023-04-20T17:44:01.097Z,3.00
2023-04-20T17:47:04.283Z,4.40
2023-04-20T17:50:08.213Z,2.28
2023-04-20T17:53:11.008Z,2.90
2023-04-20T17:56:13.917Z,4.43
2023-04-20T17:59:18.255Z,3.53
2023-04-20T18:02:21.390Z,4.75
2023-04-20T18:05:24.571Z,5.50
2023-04-20T18:08:27.586Z,2.85
2023-04-20T18:11:31.132Z,4.32
2023-04-20T18:14:34.291Z,4.50
2023-04-20T18:17:37.712Z,3.45
2023-04-20T18:20:41.092Z,4.20
2023-04-20T18:23:43.880Z,5.70
2023-04-20T18:26:46.910Z,24.92
2023-04-20T18:29:50.593Z,13.05
2023-04-20T18:32:54.202Z,12.63
2023-04-20T18:35:57.050Z,4.50
2023-04-20T18:38:59.861Z,6.63
2023-04-20T18:42:02.999Z,5.70
2023-04-20T18:45:07.308Z,3.85
2023-04-20T18:48:10.517Z,5.85
2023-04-20T18:51:13.678Z,4.65
2023-04-20T18:54:16.963Z,2.47
2023-04-20T18:57:24.296Z,4.00
2023-04-20T19:00:27.141Z,6.03
2023-04-20T19:03:30.186Z,3.92
2023-04-20T19:06:33.242Z,3.58
2023-04-20T19:09:36.192Z,4.82
2023-04-20T19:12:42.474Z,5.15
2023-04-20T19:15:46.160Z,3.72
2023-04-20T19:18:49.738Z,2.92
2023-04-20T19:21:54.265Z,3.63
2023-04-20T19:24:57.103Z,2.72
2023-04-20T19:28:01.507Z,4.30
2023-04-20T19:31:04.561Z,12.02
2023-04-20T19:34:08.443Z,5.38
2023-04-20T19:37:11.912Z,7.93
2023-04-20T19:40:14.988Z,3.88
2023-04-20T19:43:18.065Z,4.95
2023-04-20T19:46:21.904Z,4.03
2023-04-20T19:49:24.826Z,5.53
2023-04-20T19:52:27.697Z,4.40
2023-04-20T19:55:30.547Z,4.25
2023-04-20T19:58:33.386Z,4.45
2023-04-20T20:01:36.317Z,4.20
2023-04-20T20:04:39.656Z,2.92
2023-04-20T20:07:42.801Z,5.70
2023-04-20T20:10:45.657Z,5.22
2023-04-20T20:13:48.878Z,3.60
2023-04-20T20:16:51.802Z,4.20
2023-04-20T20:19:55.918Z,5.18
2023-04-20T20:23:02.050Z,3.75
2023-04-20T20:26:04.841Z,4.85
2023-04-20T20:29:07.710Z,3.20
2023-04-20T20:32:10.746Z,3.88
2023-04-20T20:35:13.597Z,3.63
2023-04-20T20:38:18.603Z,47.40
2023-04-20T20:41:21.431Z,8.68
2023-04-20T20:44:25.824Z,5.28
2023-04-20T20:47:31.111Z,5.28
2023-04-20T20:50:33.891Z,13.07
2023-04-20T20:53:36.648Z,4.28
2023-04-20T20:56:39.412Z,4.35
2023-04-20T20:59:42.088Z,12.50
2023-04-20T21:02:45.113Z,9.82
2023-04-20T21:05:47.849Z,9.52
2023-04-20T21:08:50.906Z,11.07
2023-04-20T21:11:53.837Z,11.48
2023-04-20T21:14:57.456Z,12.30
2023-04-20T21:18:00.296Z,36.17
2023-04-20T21:21:03.345Z,39.85
2023-04-20T21:24:06.237Z,75.78
2023-04-20T21:27:09.103Z,91.50
2023-04-20T21:30:12.468Z,80.68
2023-04-20T21:33:15.724Z,73.68
2023-04-20T21:36:18.528Z,23.00
2023-04-20T21:39:21.510Z,8.02
2023-04-20T21:42:24.219Z,7.43
2023-04-20T21:45:27.171Z,5.63
2023-04-20T21:48:29.908Z,6.50
2023-04-20T21:51:33.302Z,4.18
2023-04-20T21:54:36.296Z,3.97
2023-04-20T21:57:39.015Z,4.55
2023-04-20T22:00:43.861Z,3.28
2023-04-20T22:03:47.909Z,4.15
2023-04-20T22:06:50.995Z,6.55
2023-04-20T22:09:53.681Z,4.22
2023-04-20T22:12:56.612Z,5.20
2023-04-20T22:15:59.411Z,9.13
2023-04-20T22:19:04.876Z,5.47
2023-04-20T22:22:07.665Z,8.00
2023-04-20T22:25:10.598Z,24.00
2023-04-20T22:28:13.789Z,51.72
2023-04-20T22:31:16.806Z,8.35
2023-04-20T22:34:19.562Z,5.05
2023-04-20T22:37:22.302Z,7.63
2023-04-20T22:40:25.274Z,9.52
2023-04-20T22:43:28.082Z,14.68
2023-04-20T22:46:30.743Z,6.30
2023-04-20T22:49:33.634Z,7.95
2023-04-20T22:52:38.742Z,6.50
2023-04-20T22:55:42.113Z,4.93
2023-04-20T22:58:44.838Z,9.40
2023-04-20T23:01:47.515Z,7.55
2023-04-20T23:04:50.717Z,5.85
2023-04-20T23:07:54.293Z,6.82
2023-04-20T23:10:57.151Z,10.85
2023-04-20T23:13:59.869Z,5.43
2023-04-20T23:17:03.262Z,8.65
2023-04-20T23:20:14.269Z,5.78
2023-04-20T23:23:17.096Z,4.47
2023-04-20T23:26:19.907Z,3.83
2023-04-20T23:29:22.615Z,9.75
2023-04-20T23:32:26.232Z,16.55
2023-04-20T23:35:29.253Z,12.82
2023-04-20T23:38:32.012Z,5.35
2023-04-20T23:41:34.783Z,22.65
2023-04-20T23:44:37.650Z,5.70
2023-04-20T23:47:40.368Z,8.85
2023-04-20T23:50:43.092Z,6.88
2023-04-20T23:53:46.003Z,8.43
2023-04-20T23:56:48.886Z,5.05
2023-04-20T23:59:55.327Z,13.43
